WetterOnline ( https://www.wetteronline.de )

Wetter aktuell Friesoythe

Aktuelles Wetter: Friesoythe-Altenoythe (6m)

6-stündlich | Neueste Meldungen
Ortszeit Temperatur Wetter
Di, 06.12. 1:00 4.3° C bedeckt
Mo, 05.12. 19:00 3.4° C leichter Regen
Mo, 05.12. 13:00 4.6° C leichter Regen
Mo, 05.12. 7:00 4.4° C Sprühregen
Mo, 05.12. 1:00 4.2° C bedeckt
So, 04.12. 19:00 2.9° C bedeckt
So, 04.12. 13:00 1.5° C bedeckt
So, 04.12. 7:00 -0.4° C bedeckt
Ortszeit Temperatur Wetter
Di, 06.12. 4:30 4.3° C bedeckt
Di, 06.12. 4:20 4.3° C Sprühregen
Di, 06.12. 4:10 4.2° C Dunst
Di, 06.12. 4:00 4.2° C bedeckt
Di, 06.12. 3:50 4.2° C Dunst
Di, 06.12. 3:40 4.2° C Dunst
Di, 06.12. 3:30 4.3° C bedeckt
Di, 06.12. 3:00 4.3° C Regen
Di, 06.12. 2:30 4.2° C Sprühregen
Di, 06.12. 2:00 4.4° C bewölkt
Di, 06.12. 1:30 4.4° C bewölkt
Ortszeit Relative Feuchte Sichtweite
Di, 06.12. 1:00 99% 10 km
Mo, 05.12. 19:00 98% 6 km
Mo, 05.12. 13:00 97% 9 km
Mo, 05.12. 7:00 99% 2.9 km
Mo, 05.12. 1:00 88% 15 km
So, 04.12. 19:00 85% 12 km
So, 04.12. 13:00 84% 13 km
So, 04.12. 7:00 89% 6 km
Ortszeit Relative Feuchte Sichtweite
Di, 06.12. 4:30 99% 6 km
Di, 06.12. 4:20 99% -
Di, 06.12. 4:10 99% -
Di, 06.12. 4:00 99% 3.7 km
Di, 06.12. 3:50 99% -
Di, 06.12. 3:40 99% -
Di, 06.12. 3:30 99% 9 km
Di, 06.12. 3:00 99% 4.9 km
Di, 06.12. 2:30 99% 2.4 km
Di, 06.12. 2:00 97% 14 km
Di, 06.12. 1:30 97% 16 km
Ortszeit Niederschlagsmenge Niederschlagsart
Di, 06.12. 1:00 0.4 l/m2 in 6 Std. Regen
Mo, 05.12. 19:00 4 l/m2 in 12 Std. Regen
Mo, 05.12. 13:00 0.8 l/m2 in 6 Std. Regen
Mo, 05.12. 7:00 0.1 l/m2 in 12 Std. Sprühregen
Mo, 05.12. 1:00 0.0 l/m2 in 6 Std. -
So, 04.12. 19:00 0.1 l/m2 in 12 Std. -
So, 04.12. 13:00 0.1 l/m2 in 6 Std. Sprühregen
So, 04.12. 7:00 0.1 l/m2 in 12 Std. Schnee, Regen
Ortszeit Niederschlagsmenge Niederschlagsart
Di, 06.12. 4:30 <0.05 l/m2 in 30 Min Schnee
Di, 06.12. 4:20 keine Meldung -
Di, 06.12. 4:10 keine Meldung -
Di, 06.12. 4:00 <0.05 l/m2 in 1 Std. Sprühregen
Di, 06.12. 3:50 keine Meldung -
Di, 06.12. 3:40 keine Meldung -
Di, 06.12. 3:30 <0.05 l/m2 in 30 Min Schnee
Di, 06.12. 3:00 <0.05 l/m2 in 1 Std. Sprühregen
Di, 06.12. 2:30 <0.05 l/m2 in 30 Min -
Di, 06.12. 2:00 0.0 l/m2 in 1 Std. -
Di, 06.12. 1:30 0.0 l/m2 in 30 Min -
Ortszeit Stärke Spitze Richtung
km/h Bft. km/h Grad Sektor
Di, 06.12. 1:00 7 2 22 10° N
Mo, 05.12. 19:00 6 1 24 50° NO
Mo, 05.12. 13:00 15 3 30 20° N
Mo, 05.12. 7:00 7 2 30 40° NO
Mo, 05.12. 1:00 19 3 31 50° NO
So, 04.12. 19:00 19 3 33 50° NO
So, 04.12. 13:00 15 3 28 60° NO
So, 04.12. 7:00 14 3 29 60° NO
Ortszeit Stärke Spitze Richtung
km/h Bft. km/h Grad Sektor
Di, 06.12. 4:30 9 2 13 350° N
Di, 06.12. 4:20 9 2 - 350° N
Di, 06.12. 4:10 7 2 - 350° N
Di, 06.12. 4:00 7 2 18 350° N
Di, 06.12. 3:50 7 2 - 350° N
Di, 06.12. 3:40 9 2 - 350° N
Di, 06.12. 3:30 11 2 14 350° N
Di, 06.12. 3:00 7 2 14 340° N
Di, 06.12. 2:30 7 2 14 340° N
Di, 06.12. 2:00 9 2 19 340° N
Di, 06.12. 1:30 9 2 19 350° N
Ortszeit Untergrenze Bedeckung Gattung
total tief tief mittel hoch
Di, 06.12. 1:00 150 m 8/8 8/8 - - -
Mo, 05.12. 19:00 180 m 7/8 7/8 - - -
Mo, 05.12. 13:00 150 m 8/8 8/8 - - -
Mo, 05.12. 7:00 150 m 8/8 8/8 - - -
Mo, 05.12. 1:00 360 m 8/8 8/8 - - -
So, 04.12. 19:00 570 m 8/8 8/8 - - -
So, 04.12. 13:00 420 m 8/8 8/8 - - -
So, 04.12. 7:00 300 m 8/8 8/8 - - -
Ortszeit Bedeckungsgrad in Achtel und Wolkenuntergrenze
Di, 06.12. 4:30 7(150m) 8(270m)
Di, 06.12. 4:20 7(150m) 8(270m)
Di, 06.12. 4:10 8
Di, 06.12. 4:00 6(180m) 7(360m) 8(540m)
Di, 06.12. 3:50 6(180m) 7(360m) 8(540m)
Di, 06.12. 3:40 8
Di, 06.12. 3:30 6(120m) 7(270m) 8(540m)
Di, 06.12. 3:00 7(150m) 8(270m)
Di, 06.12. 2:30 7(180m)
Di, 06.12. 2:00 7(180m)
Di, 06.12. 1:30 7(180m)
Ortszeit Luftdruck NN (hPa) Tendenz (hPa in 3 Std.)
Di, 06.12. 1:00 1019 - 0,4
Mo, 05.12. 19:00 1019 + 0,5
Mo, 05.12. 13:00 1019 - 0,4
Mo, 05.12. 7:00 1019 + 0,1
Mo, 05.12. 1:00 1020 - 0,6
So, 04.12. 19:00 1020 + 0,4
So, 04.12. 13:00 1021 - 0,8
So, 04.12. 7:00 1021 - 0,2
Ortszeit Luftdruck NN (hPa) Tendenz (hPa in 3 Std.)
Di, 06.12. 4:30 1019 - 0,5
Di, 06.12. 4:20 1019 keine Meldung
Di, 06.12. 4:10 1019 keine Meldung
Di, 06.12. 4:00 1019 - 0,5
Di, 06.12. 3:50 1019 keine Meldung
Di, 06.12. 3:40 1019 keine Meldung
Di, 06.12. 3:30 1019 - 0,5
Di, 06.12. 3:00 1019 - 0,4
Di, 06.12. 2:30 1019 - 0,6
Di, 06.12. 2:00 1019 - 0,4
Di, 06.12. 1:30 1019 - 0,3
Ortszeit Schneehöhe (cm)
Di, 06.12. 1:00 0
Mo, 05.12. 19:00 0
Mo, 05.12. 13:00 0
Mo, 05.12. 7:00 0
Mo, 05.12. 1:00 0
So, 04.12. 19:00 0
So, 04.12. 13:00 0
So, 04.12. 7:00 0
Ortszeit Schneehöhe (cm)
Di, 06.12. 4:30 0
Di, 06.12. 4:20 0
Di, 06.12. 4:10 0
Di, 06.12. 4:00 0
Di, 06.12. 3:50 0
Di, 06.12. 3:40 0
Di, 06.12. 3:30 0
Di, 06.12. 3:00 0
Di, 06.12. 2:30 0
Di, 06.12. 2:00 0
Di, 06.12. 1:30 0
Link zu dieser Seite / Seite empfehlen

Das Wetter in ...